Ocean — LGUP — position and weather

sailwx.info

Track history (hours):
 
Tides and Currents Weather Stations Pressure Air Temp Water Temp Dewpoint Dewpoint Depression Visibility Wind Speed Wind Dir Waves Ship Positions

Ocean

Last reported at 2016-Jan-18 21:20 UTC. Time now 2016-Sep-01 05:35 UTC.
Position N 66°48' E 013°15'.
Warning: this ship's position is months out of date.

Length 33 m; draft 5.4 m.

Type: Fishing. MMSI: 257465500.

Date/timePositionNaut miles runAvg speedWind from/ knotsBaromVisibWave heightAir tempDewpointWater temp
2016-Jan-18 21:20N 66°48' E 013°15'148 3.3
2016-Jan-17 00:32N 68°51' E 016°55'10 9.3
2016-Jan-16 23:28N 68°58' E 017°11'9 9.4
2016-Jan-16 22:31N 69°06' E 017°26'9 9.4
2016-Jan-16 21:33N 69°09' E 017°50'  
2016-Jan-10 11:08N 68°49' E 016°52'9 9.0
2016-Jan-10 10:11N 68°56' E 017°05'6 8.8
2016-Jan-10 09:29N 69°01' E 017°16'8 8.3
2016-Jan-10 08:33N 69°06' E 017°30'8 8.2
2016-Jan-10 07:33N 69°09' E 017°51'3 0.2
2016-Jan-09 16:32N 69°11' E 017°60'9 9.3
2016-Jan-09 15:33N 69°07' E 017°37'  
Track history (hours):
 
Tides and Currents Weather Stations Pressure Air Temp Water Temp Dewpoint Dewpoint Depression Visibility Wind Speed Wind Dir Waves Ship Positions

Ocean

Last reported at 2016-Jan-18 21:20 UTC. Time now 2016-Sep-01 05:35 UTC.
Position N 66°48' E 013°15'.
Warning: this ship's position is months out of date.

Length 33 m; draft 5.4 m.

Type: Fishing. MMSI: 257465500.

Date/timePositionNaut miles runAvg speedWind from/ knotsBaromVisibWave heightAir tempDewpointWater temp
2016-Jan-18 21:20N 66°48' E 013°15'148 3.3
2016-Jan-17 00:32N 68°51' E 016°55'10 9.3
2016-Jan-16 23:28N 68°58' E 017°11'9 9.4
2016-Jan-16 22:31N 69°06' E 017°26'9 9.4
2016-Jan-16 21:33N 69°09' E 017°50'  
2016-Jan-10 11:08N 68°49' E 016°52'9 9.0
2016-Jan-10 10:11N 68°56' E 017°05'6 8.8
2016-Jan-10 09:29N 69°01' E 017°16'8 8.3
2016-Jan-10 08:33N 69°06' E 017°30'8 8.2
2016-Jan-10 07:33N 69°09' E 017°51'3 0.2
2016-Jan-09 16:32N 69°11' E 017°60'9 9.3
2016-Jan-09 15:33N 69°07' E 017°37'  

Dump ship's entire track history